sensor_id;sensor_type;location;lat;lon;timestamp;P1;durP1;ratioP1;P2;durP2;ratioP2
50631;SDS011;49583;45.590;-122.498;2023-08-08T00:01:14;5.30;;;0.70;;
50631;SDS011;49583;45.590;-122.498;2023-08-08T00:03:23;13.10;;;1.00;;
50631;SDS011;49583;45.590;-122.498;2023-08-08T00:05:33;7.90;;;1.00;;
50631;SDS011;49583;45.590;-122.498;2023-08-08T00:07:43;1.40;;;0.60;;
50631;SDS011;49583;45.590;-122.498;2023-08-08T00:09:52;1.60;;;0.40;;
50631;SDS011;49583;45.590;-122.498;2023-08-08T00:12:02;0.80;;;0.50;;
50631;SDS011;49583;45.590;-122.498;2023-08-08T00:14:13;0.70;;;0.50;;
50631;SDS011;49583;45.590;-122.498;2023-08-08T00:16:23;0.80;;;0.50;;
50631;SDS011;49583;45.590;-122.498;2023-08-08T00:18:33;1.70;;;0.60;;
50631;SDS011;49583;45.590;-122.498;2023-08-08T00:20:42;1.10;;;0.40;;
50631;SDS011;49583;45.590;-122.498;2023-08-08T00:22:52;0.50;;;0.40;;
50631;SDS011;49583;45.590;-122.498;2023-08-08T00:25:02;2.40;;;0.40;;
50631;SDS011;49583;45.590;-122.498;2023-08-08T00:27:12;1.80;;;0.40;;
50631;SDS011;49583;45.590;-122.498;2023-08-08T00:29:21;2.70;;;0.40;;
50631;SDS011;49583;45.590;-122.498;2023-08-08T00:31:31;1.10;;;0.40;;
50631;SDS011;49583;45.590;-122.498;2023-08-08T00:33:41;0.70;;;0.40;;
50631;SDS011;49583;45.590;-122.498;2023-08-08T00:35:51;0.90;;;0.50;;
50631;SDS011;49583;45.590;-122.498;2023-08-08T00:38:00;0.50;;;0.50;;
50631;SDS011;49583;45.590;-122.498;2023-08-08T00:40:11;2.40;;;0.50;;
50631;SDS011;49583;45.590;-122.498;2023-08-08T00:42:21;4.10;;;0.50;;
50631;SDS011;49583;45.590;-122.498;2023-08-08T00:44:31;0.30;;;0.30;;
50631;SDS011;49583;45.590;-122.498;2023-08-08T00:46:41;0.70;;;0.40;;
50631;SDS011;49583;45.590;-122.498;2023-08-08T00:48:51;3.60;;;0.50;;
50631;SDS011;49583;45.590;-122.498;2023-08-08T00:51:02;1.00;;;0.60;;
50631;SDS011;49583;45.590;-122.498;2023-08-08T00:53:12;0.60;;;0.30;;
50631;SDS011;49583;45.590;-122.498;2023-08-08T00:55:22;0.70;;;0.30;;
50631;SDS011;49583;45.590;-122.498;2023-08-08T00:57:32;0.90;;;0.50;;
50631;SDS011;49583;45.590;-122.498;2023-08-08T00:59:44;0.80;;;0.40;;
50631;SDS011;49583;45.590;-122.498;2023-08-08T01:01:55;2.10;;;0.60;;
50631;SDS011;49583;45.590;-122.498;2023-08-08T01:04:06;0.70;;;0.50;;
50631;SDS011;49583;45.590;-122.498;2023-08-08T01:06:16;0.60;;;0.50;;
50631;SDS011;49583;45.590;-122.498;2023-08-08T01:08:32;0.90;;;0.50;;
50631;SDS011;49583;45.590;-122.498;2023-08-08T01:10:47;3.40;;;0.50;;
50631;SDS011;49583;45.590;-122.498;2023-08-08T01:12:58;0.70;;;0.50;;
50631;SDS011;49583;45.590;-122.498;2023-08-08T01:15:13;2.60;;;0.50;;
50631;SDS011;49583;45.590;-122.498;2023-08-08T01:17:23;0.90;;;0.60;;
50631;SDS011;49583;45.590;-122.498;2023-08-08T01:19:37;1.60;;;0.60;;
50631;SDS011;49583;45.590;-122.498;2023-08-08T01:21:47;0.70;;;0.40;;
50631;SDS011;49583;45.590;-122.498;2023-08-08T01:26:20;1.20;;;0.50;;
50631;SDS011;49583;45.590;-122.498;2023-08-08T01:28:30;0.60;;;0.50;;
50631;SDS011;49583;45.590;-122.498;2023-08-08T01:30:41;1.20;;;0.40;;
50631;SDS011;49583;45.590;-122.498;2023-08-08T01:32:51;1.80;;;0.70;;
50631;SDS011;49583;45.590;-122.498;2023-08-08T01:35:01;0.90;;;0.50;;
50631;SDS011;49583;45.590;-122.498;2023-08-08T01:37:13;0.40;;;0.40;;
50631;SDS011;49583;45.590;-122.498;2023-08-08T01:39:27;1.30;;;0.60;;
50631;SDS011;49583;45.590;-122.498;2023-08-08T01:41:39;4.50;;;0.60;;
50631;SDS011;49583;45.590;-122.498;2023-08-08T01:43:50;1.90;;;0.40;;
50631;SDS011;49583;45.590;-122.498;2023-08-08T01:46:02;0.70;;;0.40;;
50631;SDS011;49583;45.590;-122.498;2023-08-08T01:50:21;1.20;;;0.60;;
50631;SDS011;49583;45.590;-122.498;2023-08-08T01:54:41;0.70;;;0.60;;
50631;SDS011;49583;45.590;-122.498;2023-08-08T01:56:50;0.70;;;0.50;;
50631;SDS011;49583;45.590;-122.498;2023-08-08T01:59:00;0.30;;;0.30;;
50631;SDS011;49583;45.590;-122.498;2023-08-08T02:01:10;2.40;;;0.50;;
50631;SDS011;49583;45.590;-122.498;2023-08-08T02:03:20;0.50;;;0.50;;
50631;SDS011;49583;45.590;-122.498;2023-08-08T02:05:30;0.50;;;0.40;;
50631;SDS011;49583;45.590;-122.498;2023-08-08T02:07:40;0.50;;;0.40;;
50631;SDS011;49583;45.590;-122.498;2023-08-08T02:09:51;1.10;;;0.60;;
50631;SDS011;49583;45.590;-122.498;2023-08-08T02:12:03;1.80;;;0.40;;
50631;SDS011;49583;45.590;-122.498;2023-08-08T02:14:13;0.80;;;0.40;;
50631;SDS011;49583;45.590;-122.498;2023-08-08T02:16:23;0.60;;;0.50;;
50631;SDS011;49583;45.590;-122.498;2023-08-08T02:18:33;1.90;;;0.40;;
50631;SDS011;49583;45.590;-122.498;2023-08-08T02:20:46;0.40;;;0.30;;
50631;SDS011;49583;45.590;-122.498;2023-08-08T02:22:57;0.70;;;0.30;;
50631;SDS011;49583;45.590;-122.498;2023-08-08T02:25:07;1.70;;;0.40;;
50631;SDS011;49583;45.590;-122.498;2023-08-08T02:27:17;0.70;;;0.50;;
50631;SDS011;49583;45.590;-122.498;2023-08-08T02:29:27;0.90;;;0.60;;
50631;SDS011;49583;45.590;-122.498;2023-08-08T02:31:37;0.40;;;0.40;;
50631;SDS011;49583;45.590;-122.498;2023-08-08T02:33:48;0.70;;;0.50;;
50631;SDS011;49583;45.590;-122.498;2023-08-08T02:35:58;0.50;;;0.50;;
50631;SDS011;49583;45.590;-122.498;2023-08-08T02:38:09;0.50;;;0.50;;
50631;SDS011;49583;45.590;-122.498;2023-08-08T02:40:19;0.40;;;0.40;;
50631;SDS011;49583;45.590;-122.498;2023-08-08T02:42:30;0.70;;;0.40;;
50631;SDS011;49583;45.590;-122.498;2023-08-08T02:44:40;0.80;;;0.60;;
50631;SDS011;49583;45.590;-122.498;2023-08-08T02:46:53;1.50;;;0.50;;
50631;SDS011;49583;45.590;-122.498;2023-08-08T02:49:02;1.70;;;0.50;;
50631;SDS011;49583;45.590;-122.498;2023-08-08T02:51:12;1.20;;;0.70;;
50631;SDS011;49583;45.590;-122.498;2023-08-08T02:53:22;0.60;;;0.50;;
50631;SDS011;49583;45.590;-122.498;2023-08-08T02:55:33;1.00;;;0.60;;
50631;SDS011;49583;45.590;-122.498;2023-08-08T02:57:43;2.30;;;0.50;;
50631;SDS011;49583;45.590;-122.498;2023-08-08T02:59:53;0.50;;;0.40;;
50631;SDS011;49583;45.590;-122.498;2023-08-08T03:02:03;4.60;;;0.60;;
50631;SDS011;49583;45.590;-122.498;2023-08-08T03:04:14;1.80;;;0.40;;
50631;SDS011;49583;45.590;-122.498;2023-08-08T03:06:24;2.00;;;0.70;;
50631;SDS011;49583;45.590;-122.498;2023-08-08T03:08:34;2.20;;;0.40;;
50631;SDS011;49583;45.590;-122.498;2023-08-08T03:10:44;1.00;;;0.60;;
50631;SDS011;49583;45.590;-122.498;2023-08-08T03:12:55;3.30;;;0.90;;
50631;SDS011;49583;45.590;-122.498;2023-08-08T03:15:06;1.50;;;0.50;;
50631;SDS011;49583;45.590;-122.498;2023-08-08T03:17:17;0.60;;;0.30;;
50631;SDS011;49583;45.590;-122.498;2023-08-08T03:19:28;0.70;;;0.60;;
50631;SDS011;49583;45.590;-122.498;2023-08-08T03:21:38;0.40;;;0.30;;
50631;SDS011;49583;45.590;-122.498;2023-08-08T03:23:49;0.50;;;0.40;;
50631;SDS011;49583;45.590;-122.498;2023-08-08T03:25:59;0.40;;;0.40;;
50631;SDS011;49583;45.590;-122.498;2023-08-08T03:28:08;1.30;;;0.40;;
50631;SDS011;49583;45.590;-122.498;2023-08-08T03:30:18;0.80;;;0.50;;
50631;SDS011;49583;45.590;-122.498;2023-08-08T03:32:27;1.00;;;0.50;;
50631;SDS011;49583;45.590;-122.498;2023-08-08T03:34:37;1.00;;;0.50;;
50631;SDS011;49583;45.590;-122.498;2023-08-08T03:36:48;1.60;;;0.60;;
50631;SDS011;49583;45.590;-122.498;2023-08-08T03:38:58;0.80;;;0.60;;
50631;SDS011;49583;45.590;-122.498;2023-08-08T03:41:08;1.20;;;0.60;;
50631;SDS011;49583;45.590;-122.498;2023-08-08T03:43:19;0.60;;;0.50;;
50631;SDS011;49583;45.590;-122.498;2023-08-08T03:45:28;2.20;;;0.60;;
50631;SDS011;49583;45.590;-122.498;2023-08-08T03:47:38;0.90;;;0.50;;
50631;SDS011;49583;45.590;-122.498;2023-08-08T03:49:48;0.60;;;0.60;;
50631;SDS011;49583;45.590;-122.498;2023-08-08T03:52:00;0.60;;;0.50;;
50631;SDS011;49583;45.590;-122.498;2023-08-08T03:54:11;0.80;;;0.50;;
50631;SDS011;49583;45.590;-122.498;2023-08-08T03:56:21;1.20;;;0.60;;
50631;SDS011;49583;45.590;-122.498;2023-08-08T03:58:31;2.60;;;0.60;;
50631;SDS011;49583;45.590;-122.498;2023-08-08T04:00:41;3.90;;;1.20;;
50631;SDS011;49583;45.590;-122.498;2023-08-08T04:02:52;3.90;;;1.00;;
50631;SDS011;49583;45.590;-122.498;2023-08-08T04:05:02;3.10;;;0.60;;
50631;SDS011;49583;45.590;-122.498;2023-08-08T04:07:12;0.80;;;0.70;;
50631;SDS011;49583;45.590;-122.498;2023-08-08T04:09:22;1.60;;;0.70;;
50631;SDS011;49583;45.590;-122.498;2023-08-08T04:11:32;1.70;;;0.70;;
50631;SDS011;49583;45.590;-122.498;2023-08-08T04:13:42;2.10;;;0.90;;
50631;SDS011;49583;45.590;-122.498;2023-08-08T04:15:52;3.40;;;1.00;;
50631;SDS011;49583;45.590;-122.498;2023-08-08T04:18:01;1.80;;;0.70;;
50631;SDS011;49583;45.590;-122.498;2023-08-08T04:20:12;1.80;;;0.90;;
50631;SDS011;49583;45.590;-122.498;2023-08-08T04:22:21;3.00;;;1.20;;
50631;SDS011;49583;45.590;-122.498;2023-08-08T04:24:31;2.40;;;0.60;;
50631;SDS011;49583;45.590;-122.498;2023-08-08T04:26:41;3.50;;;0.60;;
50631;SDS011;49583;45.590;-122.498;2023-08-08T04:28:50;1.40;;;0.50;;
50631;SDS011;49583;45.590;-122.498;2023-08-08T04:31:01;0.60;;;0.60;;
50631;SDS011;49583;45.590;-122.498;2023-08-08T04:33:10;0.40;;;0.40;;
50631;SDS011;49583;45.590;-122.498;2023-08-08T04:35:20;4.10;;;0.50;;
50631;SDS011;49583;45.590;-122.498;2023-08-08T04:37:30;1.00;;;0.50;;
50631;SDS011;49583;45.590;-122.498;2023-08-08T04:39:39;0.90;;;0.50;;
50631;SDS011;49583;45.590;-122.498;2023-08-08T04:41:49;0.80;;;0.50;;
50631;SDS011;49583;45.590;-122.498;2023-08-08T04:43:59;1.30;;;0.40;;
50631;SDS011;49583;45.590;-122.498;2023-08-08T04:46:08;0.80;;;0.60;;
50631;SDS011;49583;45.590;-122.498;2023-08-08T04:48:18;2.00;;;0.50;;
50631;SDS011;49583;45.590;-122.498;2023-08-08T04:50:28;0.70;;;0.50;;
50631;SDS011;49583;45.590;-122.498;2023-08-08T04:52:38;1.10;;;0.50;;
50631;SDS011;49583;45.590;-122.498;2023-08-08T04:54:48;2.40;;;0.60;;
50631;SDS011;49583;45.590;-122.498;2023-08-08T04:56:57;2.60;;;0.60;;
50631;SDS011;49583;45.590;-122.498;2023-08-08T04:59:07;0.70;;;0.40;;
50631;SDS011;49583;45.590;-122.498;2023-08-08T05:01:17;1.00;;;0.40;;
50631;SDS011;49583;45.590;-122.498;2023-08-08T05:03:27;8.40;;;1.50;;
50631;SDS011;49583;45.590;-122.498;2023-08-08T05:05:37;4.10;;;0.80;;
50631;SDS011;49583;45.590;-122.498;2023-08-08T05:07:47;0.90;;;0.70;;
50631;SDS011;49583;45.590;-122.498;2023-08-08T05:09:56;2.40;;;0.50;;
50631;SDS011;49583;45.590;-122.498;2023-08-08T05:12:06;1.40;;;0.50;;
50631;SDS011;49583;45.590;-122.498;2023-08-08T05:14:16;0.90;;;0.50;;
50631;SDS011;49583;45.590;-122.498;2023-08-08T05:16:26;0.60;;;0.50;;
50631;SDS011;49583;45.590;-122.498;2023-08-08T05:18:35;0.90;;;0.40;;
50631;SDS011;49583;45.590;-122.498;2023-08-08T05:20:45;0.30;;;0.30;;
50631;SDS011;49583;45.590;-122.498;2023-08-08T05:22:54;0.50;;;0.50;;
50631;SDS011;49583;45.590;-122.498;2023-08-08T05:25:04;0.60;;;0.40;;
50631;SDS011;49583;45.590;-122.498;2023-08-08T05:27:15;0.40;;;0.40;;
50631;SDS011;49583;45.590;-122.498;2023-08-08T05:29:25;0.70;;;0.40;;
50631;SDS011;49583;45.590;-122.498;2023-08-08T05:31:34;0.60;;;0.50;;
50631;SDS011;49583;45.590;-122.498;2023-08-08T05:33:44;0.70;;;0.50;;
50631;SDS011;49583;45.590;-122.498;2023-08-08T05:35:55;1.30;;;0.50;;
50631;SDS011;49583;45.590;-122.498;2023-08-08T05:38:04;0.50;;;0.50;;
50631;SDS011;49583;45.590;-122.498;2023-08-08T05:40:14;1.30;;;0.50;;
50631;SDS011;49583;45.590;-122.498;2023-08-08T05:42:23;1.30;;;0.50;;
50631;SDS011;49583;45.590;-122.498;2023-08-08T05:44:33;0.50;;;0.50;;
50631;SDS011;49583;45.590;-122.498;2023-08-08T05:46:42;1.30;;;0.50;;
50631;SDS011;49583;45.590;-122.498;2023-08-08T05:48:52;2.60;;;0.40;;
50631;SDS011;49583;45.590;-122.498;2023-08-08T05:51:01;0.50;;;0.40;;
50631;SDS011;49583;45.590;-122.498;2023-08-08T05:53:11;1.00;;;0.40;;
50631;SDS011;49583;45.590;-122.498;2023-08-08T05:55:21;0.50;;;0.40;;
50631;SDS011;49583;45.590;-122.498;2023-08-08T05:57:31;0.50;;;0.50;;
50631;SDS011;49583;45.590;-122.498;2023-08-08T05:59:40;2.20;;;0.50;;
50631;SDS011;49583;45.590;-122.498;2023-08-08T06:01:50;0.80;;;0.50;;
50631;SDS011;49583;45.590;-122.498;2023-08-08T06:04:00;0.80;;;0.60;;
50631;SDS011;49583;45.590;-122.498;2023-08-08T06:06:10;0.50;;;0.40;;
50631;SDS011;49583;45.590;-122.498;2023-08-08T06:08:20;0.70;;;0.50;;
50631;SDS011;49583;45.590;-122.498;2023-08-08T06:10:29;0.50;;;0.50;;
50631;SDS011;49583;45.590;-122.498;2023-08-08T06:12:39;0.50;;;0.50;;
50631;SDS011;49583;45.590;-122.498;2023-08-08T06:14:48;0.40;;;0.40;;
50631;SDS011;49583;45.590;-122.498;2023-08-08T06:16:58;1.20;;;0.40;;
50631;SDS011;49583;45.590;-122.498;2023-08-08T06:19:07;0.70;;;0.70;;
50631;SDS011;49583;45.590;-122.498;2023-08-08T06:21:17;0.50;;;0.40;;
50631;SDS011;49583;45.590;-122.498;2023-08-08T06:23:27;2.10;;;0.50;;
50631;SDS011;49583;45.590;-122.498;2023-08-08T06:25:37;2.80;;;0.60;;
50631;SDS011;49583;45.590;-122.498;2023-08-08T06:27:47;1.70;;;0.50;;
50631;SDS011;49583;45.590;-122.498;2023-08-08T06:29:56;0.50;;;0.50;;
50631;SDS011;49583;45.590;-122.498;2023-08-08T06:32:06;0.50;;;0.40;;
50631;SDS011;49583;45.590;-122.498;2023-08-08T06:34:16;1.60;;;0.40;;
50631;SDS011;49583;45.590;-122.498;2023-08-08T06:36:25;0.90;;;0.50;;
50631;SDS011;49583;45.590;-122.498;2023-08-08T06:38:35;0.40;;;0.40;;
50631;SDS011;49583;45.590;-122.498;2023-08-08T06:40:44;0.50;;;0.40;;
50631;SDS011;49583;45.590;-122.498;2023-08-08T06:42:55;0.40;;;0.40;;
50631;SDS011;49583;45.590;-122.498;2023-08-08T06:45:05;0.50;;;0.40;;
50631;SDS011;49583;45.590;-122.498;2023-08-08T06:47:15;0.40;;;0.40;;
50631;SDS011;49583;45.590;-122.498;2023-08-08T06:49:25;3.40;;;0.50;;
50631;SDS011;49583;45.590;-122.498;2023-08-08T06:51:34;0.40;;;0.40;;
50631;SDS011;49583;45.590;-122.498;2023-08-08T06:53:44;0.50;;;0.50;;
50631;SDS011;49583;45.590;-122.498;2023-08-08T06:55:54;1.60;;;0.50;;
50631;SDS011;49583;45.590;-122.498;2023-08-08T06:58:03;1.60;;;0.60;;
50631;SDS011;49583;45.590;-122.498;2023-08-08T07:00:13;0.60;;;0.40;;
50631;SDS011;49583;45.590;-122.498;2023-08-08T07:02:23;0.70;;;0.40;;
50631;SDS011;49583;45.590;-122.498;2023-08-08T07:04:32;0.50;;;0.50;;
50631;SDS011;49583;45.590;-122.498;2023-08-08T07:06:42;0.40;;;0.40;;
50631;SDS011;49583;45.590;-122.498;2023-08-08T07:08:52;0.70;;;0.50;;
50631;SDS011;49583;45.590;-122.498;2023-08-08T07:11:01;0.40;;;0.40;;
50631;SDS011;49583;45.590;-122.498;2023-08-08T07:13:11;0.50;;;0.50;;
50631;SDS011;49583;45.590;-122.498;2023-08-08T07:15:22;0.60;;;0.40;;
50631;SDS011;49583;45.590;-122.498;2023-08-08T07:17:32;0.90;;;0.50;;
50631;SDS011;49583;45.590;-122.498;2023-08-08T07:19:41;0.40;;;0.40;;
50631;SDS011;49583;45.590;-122.498;2023-08-08T07:21:51;0.60;;;0.30;;
50631;SDS011;49583;45.590;-122.498;2023-08-08T07:24:01;0.80;;;0.50;;
50631;SDS011;49583;45.590;-122.498;2023-08-08T07:26:11;0.40;;;0.40;;
50631;SDS011;49583;45.590;-122.498;2023-08-08T07:28:21;1.20;;;0.50;;
50631;SDS011;49583;45.590;-122.498;2023-08-08T07:30:31;0.40;;;0.40;;
50631;SDS011;49583;45.590;-122.498;2023-08-08T07:32:40;0.50;;;0.50;;
50631;SDS011;49583;45.590;-122.498;2023-08-08T07:34:50;0.90;;;0.70;;
50631;SDS011;49583;45.590;-122.498;2023-08-08T07:36:59;0.40;;;0.40;;
50631;SDS011;49583;45.590;-122.498;2023-08-08T07:39:09;0.50;;;0.50;;
50631;SDS011;49583;45.590;-122.498;2023-08-08T07:41:19;0.60;;;0.60;;
50631;SDS011;49583;45.590;-122.498;2023-08-08T07:43:30;0.40;;;0.40;;
50631;SDS011;49583;45.590;-122.498;2023-08-08T07:45:39;0.50;;;0.50;;
50631;SDS011;49583;45.590;-122.498;2023-08-08T07:47:49;0.50;;;0.50;;
50631;SDS011;49583;45.590;-122.498;2023-08-08T07:49:58;0.70;;;0.70;;
50631;SDS011;49583;45.590;-122.498;2023-08-08T07:52:08;0.50;;;0.50;;
50631;SDS011;49583;45.590;-122.498;2023-08-08T07:54:17;0.90;;;0.50;;
50631;SDS011;49583;45.590;-122.498;2023-08-08T07:56:27;0.70;;;0.60;;
50631;SDS011;49583;45.590;-122.498;2023-08-08T07:58:37;2.70;;;0.40;;
50631;SDS011;49583;45.590;-122.498;2023-08-08T08:00:46;1.40;;;0.60;;
50631;SDS011;49583;45.590;-122.498;2023-08-08T08:02:57;1.50;;;0.60;;
50631;SDS011;49583;45.590;-122.498;2023-08-08T08:05:07;0.90;;;0.50;;
50631;SDS011;49583;45.590;-122.498;2023-08-08T08:07:17;0.90;;;0.60;;
50631;SDS011;49583;45.590;-122.498;2023-08-08T08:09:27;0.60;;;0.50;;
50631;SDS011;49583;45.590;-122.498;2023-08-08T08:11:37;0.50;;;0.50;;
50631;SDS011;49583;45.590;-122.498;2023-08-08T08:13:46;0.50;;;0.50;;
50631;SDS011;49583;45.590;-122.498;2023-08-08T08:15:56;0.40;;;0.40;;
50631;SDS011;49583;45.590;-122.498;2023-08-08T08:18:06;0.60;;;0.60;;
50631;SDS011;49583;45.590;-122.498;2023-08-08T08:20:16;1.00;;;0.60;;
50631;SDS011;49583;45.590;-122.498;2023-08-08T08:22:26;0.60;;;0.60;;
50631;SDS011;49583;45.590;-122.498;2023-08-08T08:24:35;1.10;;;0.60;;
50631;SDS011;49583;45.590;-122.498;2023-08-08T08:26:45;1.20;;;0.70;;
50631;SDS011;49583;45.590;-122.498;2023-08-08T08:28:55;1.00;;;0.80;;
50631;SDS011;49583;45.590;-122.498;2023-08-08T08:31:07;1.00;;;0.70;;
50631;SDS011;49583;45.590;-122.498;2023-08-08T08:33:17;0.60;;;0.60;;
50631;SDS011;49583;45.590;-122.498;2023-08-08T08:35:26;1.40;;;0.70;;
50631;SDS011;49583;45.590;-122.498;2023-08-08T08:37:36;0.60;;;0.50;;
50631;SDS011;49583;45.590;-122.498;2023-08-08T08:39:45;0.70;;;0.50;;
50631;SDS011;49583;45.590;-122.498;2023-08-08T08:41:56;0.90;;;0.60;;
50631;SDS011;49583;45.590;-122.498;2023-08-08T08:44:10;0.60;;;0.60;;
50631;SDS011;49583;45.590;-122.498;2023-08-08T08:46:21;1.00;;;0.60;;
50631;SDS011;49583;45.590;-122.498;2023-08-08T08:48:33;0.60;;;0.60;;
50631;SDS011;49583;45.590;-122.498;2023-08-08T08:50:43;0.70;;;0.50;;
50631;SDS011;49583;45.590;-122.498;2023-08-08T08:52:54;0.70;;;0.60;;
50631;SDS011;49583;45.590;-122.498;2023-08-08T08:55:06;0.90;;;0.60;;
50631;SDS011;49583;45.590;-122.498;2023-08-08T08:57:17;0.50;;;0.50;;
50631;SDS011;49583;45.590;-122.498;2023-08-08T08:59:28;1.00;;;0.60;;
50631;SDS011;49583;45.590;-122.498;2023-08-08T09:01:38;0.60;;;0.60;;
50631;SDS011;49583;45.590;-122.498;2023-08-08T09:03:48;0.50;;;0.40;;
50631;SDS011;49583;45.590;-122.498;2023-08-08T09:05:57;0.80;;;0.60;;
50631;SDS011;49583;45.590;-122.498;2023-08-08T09:08:08;0.60;;;0.50;;
50631;SDS011;49583;45.590;-122.498;2023-08-08T09:10:18;0.80;;;0.60;;
50631;SDS011;49583;45.590;-122.498;2023-08-08T09:12:28;0.60;;;0.60;;
50631;SDS011;49583;45.590;-122.498;2023-08-08T09:14:41;0.90;;;0.60;;
50631;SDS011;49583;45.590;-122.498;2023-08-08T09:16:51;0.60;;;0.50;;
50631;SDS011;49583;45.590;-122.498;2023-08-08T09:19:02;0.60;;;0.60;;
50631;SDS011;49583;45.590;-122.498;2023-08-08T09:21:12;0.60;;;0.60;;
50631;SDS011;49583;45.590;-122.498;2023-08-08T09:23:22;0.60;;;0.60;;
50631;SDS011;49583;45.590;-122.498;2023-08-08T09:25:31;0.80;;;0.60;;
50631;SDS011;49583;45.590;-122.498;2023-08-08T09:27:42;1.20;;;0.60;;
50631;SDS011;49583;45.590;-122.498;2023-08-08T09:29:52;0.40;;;0.40;;
50631;SDS011;49583;45.590;-122.498;2023-08-08T09:32:03;1.60;;;0.70;;
50631;SDS011;49583;45.590;-122.498;2023-08-08T09:36:21;3.10;;;0.60;;
50631;SDS011;49583;45.590;-122.498;2023-08-08T09:38:31;2.70;;;0.80;;
50631;SDS011;49583;45.590;-122.498;2023-08-08T09:40:41;2.00;;;0.70;;
50631;SDS011;49583;45.590;-122.498;2023-08-08T09:42:52;1.20;;;0.60;;
50631;SDS011;49583;45.590;-122.498;2023-08-08T09:45:04;0.90;;;0.80;;
50631;SDS011;49583;45.590;-122.498;2023-08-08T09:49:24;1.20;;;0.70;;
50631;SDS011;49583;45.590;-122.498;2023-08-08T09:51:35;1.10;;;0.80;;
50631;SDS011;49583;45.590;-122.498;2023-08-08T09:53:45;0.80;;;0.80;;
50631;SDS011;49583;45.590;-122.498;2023-08-08T09:55:56;1.70;;;0.80;;
50631;SDS011;49583;45.590;-122.498;2023-08-08T09:58:07;0.80;;;0.80;;
50631;SDS011;49583;45.590;-122.498;2023-08-08T10:00:17;1.30;;;0.70;;
50631;SDS011;49583;45.590;-122.498;2023-08-08T10:02:27;0.70;;;0.70;;
50631;SDS011;49583;45.590;-122.498;2023-08-08T10:04:37;1.10;;;0.80;;
50631;SDS011;49583;45.590;-122.498;2023-08-08T10:06:47;1.20;;;0.70;;
50631;SDS011;49583;45.590;-122.498;2023-08-08T10:08:57;0.80;;;0.80;;
50631;SDS011;49583;45.590;-122.498;2023-08-08T10:11:07;1.50;;;0.90;;
50631;SDS011;49583;45.590;-122.498;2023-08-08T10:13:20;1.20;;;0.70;;
50631;SDS011;49583;45.590;-122.498;2023-08-08T10:15:30;0.70;;;0.70;;
50631;SDS011;49583;45.590;-122.498;2023-08-08T10:17:43;3.00;;;0.70;;
50631;SDS011;49583;45.590;-122.498;2023-08-08T10:19:53;5.40;;;1.40;;
50631;SDS011;49583;45.590;-122.498;2023-08-08T10:22:04;5.50;;;1.80;;
50631;SDS011;49583;45.590;-122.498;2023-08-08T10:24:19;8.10;;;2.10;;
50631;SDS011;49583;45.590;-122.498;2023-08-08T10:26:29;3.80;;;1.10;;
50631;SDS011;49583;45.590;-122.498;2023-08-08T10:28:38;1.30;;;1.00;;
50631;SDS011;49583;45.590;-122.498;2023-08-08T10:34:10;1.00;;;0.90;;
50631;SDS011;49583;45.590;-122.498;2023-08-08T10:36:19;2.10;;;0.90;;
50631;SDS011;49583;45.590;-122.498;2023-08-08T10:38:39;1.10;;;0.70;;
50631;SDS011;49583;45.590;-122.498;2023-08-08T10:40:55;1.00;;;0.90;;
50631;SDS011;49583;45.590;-122.498;2023-08-08T10:43:11;1.40;;;0.80;;
50631;SDS011;49583;45.590;-122.498;2023-08-08T10:45:20;1.20;;;1.10;;
50631;SDS011;49583;45.590;-122.498;2023-08-08T10:47:38;2.10;;;0.90;;
50631;SDS011;49583;45.590;-122.498;2023-08-08T10:49:57;1.00;;;0.80;;
50631;SDS011;49583;45.590;-122.498;2023-08-08T10:52:13;0.70;;;0.70;;
50631;SDS011;49583;45.590;-122.498;2023-08-08T10:54:24;0.80;;;0.80;;
50631;SDS011;49583;45.590;-122.498;2023-08-08T10:56:36;1.00;;;0.90;;
50631;SDS011;49583;45.590;-122.498;2023-08-08T10:58:48;4.10;;;0.90;;
50631;SDS011;49583;45.590;-122.498;2023-08-08T11:00:58;0.80;;;0.80;;
50631;SDS011;49583;45.590;-122.498;2023-08-08T11:03:11;0.70;;;0.70;;
50631;SDS011;49583;45.590;-122.498;2023-08-08T11:05:21;0.90;;;0.90;;
50631;SDS011;49583;45.590;-122.498;2023-08-08T11:10:38;0.90;;;0.80;;
50631;SDS011;49583;45.590;-122.498;2023-08-08T11:12:58;1.00;;;0.90;;
50631;SDS011;49583;45.590;-122.498;2023-08-08T11:15:09;1.50;;;0.80;;
50631;SDS011;49583;45.590;-122.498;2023-08-08T11:17:19;0.80;;;0.70;;
50631;SDS011;49583;45.590;-122.498;2023-08-08T11:19:28;0.80;;;0.80;;
50631;SDS011;49583;45.590;-122.498;2023-08-08T11:21:38;0.80;;;0.80;;
50631;SDS011;49583;45.590;-122.498;2023-08-08T11:23:49;0.80;;;0.80;;
50631;SDS011;49583;45.590;-122.498;2023-08-08T11:25:59;1.60;;;1.20;;
50631;SDS011;49583;45.590;-122.498;2023-08-08T11:28:15;1.20;;;1.10;;
50631;SDS011;49583;45.590;-122.498;2023-08-08T11:30:31;0.90;;;0.80;;
50631;SDS011;49583;45.590;-122.498;2023-08-08T11:32:44;3.90;;;0.90;;
50631;SDS011;49583;45.590;-122.498;2023-08-08T11:34:58;1.20;;;0.80;;
50631;SDS011;49583;45.590;-122.498;2023-08-08T11:37:09;1.10;;;0.90;;
50631;SDS011;49583;45.590;-122.498;2023-08-08T11:39:20;1.00;;;0.90;;
50631;SDS011;49583;45.590;-122.498;2023-08-08T11:41:30;2.00;;;0.90;;
50631;SDS011;49583;45.590;-122.498;2023-08-08T11:43:41;1.50;;;1.00;;
50631;SDS011;49583;45.590;-122.498;2023-08-08T11:45:50;1.90;;;0.70;;
50631;SDS011;49583;45.590;-122.498;2023-08-08T11:48:01;1.60;;;0.80;;
50631;SDS011;49583;45.590;-122.498;2023-08-08T11:50:12;1.60;;;1.00;;
50631;SDS011;49583;45.590;-122.498;2023-08-08T11:52:23;1.50;;;1.00;;
50631;SDS011;49583;45.590;-122.498;2023-08-08T11:54:36;1.10;;;0.90;;
50631;SDS011;49583;45.590;-122.498;2023-08-08T11:56:48;1.00;;;0.80;;
50631;SDS011;49583;45.590;-122.498;2023-08-08T11:58:59;1.80;;;1.20;;
50631;SDS011;49583;45.590;-122.498;2023-08-08T12:01:10;1.30;;;1.00;;
50631;SDS011;49583;45.590;-122.498;2023-08-08T12:03:20;1.80;;;0.90;;
50631;SDS011;49583;45.590;-122.498;2023-08-08T12:05:35;1.80;;;1.00;;
50631;SDS011;49583;45.590;-122.498;2023-08-08T12:07:46;1.20;;;0.90;;
50631;SDS011;49583;45.590;-122.498;2023-08-08T12:09:57;1.10;;;0.90;;
50631;SDS011;49583;45.590;-122.498;2023-08-08T12:12:08;0.90;;;0.70;;
50631;SDS011;49583;45.590;-122.498;2023-08-08T12:14:18;1.60;;;1.10;;
50631;SDS011;49583;45.590;-122.498;2023-08-08T12:16:28;1.00;;;0.90;;
50631;SDS011;49583;45.590;-122.498;2023-08-08T12:18:39;1.10;;;1.00;;
50631;SDS011;49583;45.590;-122.498;2023-08-08T12:20:49;1.70;;;0.90;;
50631;SDS011;49583;45.590;-122.498;2023-08-08T12:22:59;1.10;;;1.00;;
50631;SDS011;49583;45.590;-122.498;2023-08-08T12:25:09;2.70;;;1.10;;
50631;SDS011;49583;45.590;-122.498;2023-08-08T12:27:18;3.10;;;1.40;;
50631;SDS011;49583;45.590;-122.498;2023-08-08T12:29:28;1.50;;;1.10;;
50631;SDS011;49583;45.590;-122.498;2023-08-08T12:31:38;1.30;;;1.00;;
50631;SDS011;49583;45.590;-122.498;2023-08-08T12:33:47;1.20;;;1.10;;
50631;SDS011;49583;45.590;-122.498;2023-08-08T12:35:59;3.60;;;1.70;;
50631;SDS011;49583;45.590;-122.498;2023-08-08T12:38:09;1.20;;;1.10;;
50631;SDS011;49583;45.590;-122.498;2023-08-08T12:40:19;2.20;;;1.10;;
50631;SDS011;49583;45.590;-122.498;2023-08-08T12:42:31;2.00;;;1.10;;
50631;SDS011;49583;45.590;-122.498;2023-08-08T12:44:40;2.10;;;1.20;;
50631;SDS011;49583;45.590;-122.498;2023-08-08T12:46:50;2.30;;;1.40;;
50631;SDS011;49583;45.590;-122.498;2023-08-08T12:49:00;1.60;;;1.20;;